Airfield :
LOGIN :

Register | Disclaimer

   EN    FR    IT 

 










Legend :    VFR   Marginal VFR   IFR   Intensive IFR   Very Intensive IFR
Visi :
Ceiling :
>= 8 km
>= 3000ft
5 to 8 km
1000 to 3000 ft
1500m to 5 km
500 to 1000 ft
800 to 1500m
200 to 500 ft
< 800m
< 200 ft
Symbols :   Thunderstorms  Fog  Heavy snow  Heavy precipitations  Wind > 20 kt
SIGMETs :     Misc.  Thunderstorms  Icing  Turbulence  Mountain Waves  Volcanic Ashes






- Airport Elevation : 39 ft
- IATA code : SUF


LICA - Lamezia Terme

CURRENT METAR :
  • 221620Z AUTO VRB02KT 9999 SCT086/// SCT110/// 27/17 Q1015

EXPIRED METARs :
  • 221550Z AUTO 27005KT 9999 BKN084/// 28/15 Q1015
  • 221520Z AUTO 25005KT 9999 BKN091/// 28/17 Q1015
  • 221450Z AUTO 24004KT 210V270 9999 BKN100/// 29/14 Q1015
  • 221420Z AUTO 27006KT 240V300 9999 FEW083/// BKN100/// 29/16 Q1015
  • 221350Z AUTO 27007KT 9999 BKN086/// 30/14 Q1015

TAF TAF LICA
Valid from the 22 at 12:00 until the 23 at 12:00 UTC


221100Z 2212/2312 29010KT 9999 SCT020
TEMPO 2212/2218 TSRA
BECMG 2218/2220 07008KT



MET'MAP, your aeronautical weather chart ! - Copyright ORBIFLY December 2007 - Disclaimer

ORBIFLY MET'MAP TEAM :

Programming & Development : Alexandra Zaïnal
Concept & original design : Baudouin d'Aumeries
Assistance for programming : Marc-Olivier Méhu
Technical & hardware support : Manuel Goepfert

Contact : metmap@orbifly.com




SOURCES & CREDITS :

   NOAA